createdAt,value
2023-03-30T00:01:15.099Z,38.23
2023-03-30T00:03:43.536Z,38.73
2023-03-30T00:06:10.978Z,38.83
2023-03-30T00:08:38.198Z,38.30
2023-03-30T00:11:10.126Z,37.33
2023-03-30T00:13:36.947Z,37.63
2023-03-30T00:16:05.353Z,38.87
2023-03-30T00:18:41.312Z,37.93
2023-03-30T00:21:10.006Z,36.87
2023-03-30T00:23:36.905Z,36.77
2023-03-30T00:26:03.774Z,36.90
2023-03-30T00:28:31.152Z,36.37
2023-03-30T00:30:58.002Z,37.90
2023-03-30T00:33:37.282Z,37.30
2023-03-30T00:36:11.049Z,36.47
2023-03-30T00:38:37.524Z,36.17
2023-03-30T00:41:04.339Z,36.37
2023-03-30T00:43:32.861Z,35.40
2023-03-30T00:45:59.499Z,36.13
2023-03-30T00:48:34.788Z,36.57
2023-03-30T00:51:02.380Z,36.03
2023-03-30T00:53:34.736Z,34.97
2023-03-30T00:56:02.538Z,36.10
2023-03-30T00:58:30.014Z,33.87
2023-03-30T01:00:58.651Z,34.40
2023-03-30T01:03:30.442Z,34.60
2023-03-30T01:05:59.009Z,35.70
2023-03-30T01:08:27.242Z,34.27
2023-03-30T01:10:53.961Z,35.57
2023-03-30T01:13:20.482Z,35.17
2023-03-30T01:15:52.795Z,36.53
2023-03-30T01:18:27.604Z,36.07
2023-03-30T01:21:23.189Z,35.17
2023-03-30T01:24:11.650Z,35.23
2023-03-30T01:26:50.519Z,34.67
2023-03-30T01:29:38.843Z,35.00
2023-03-30T01:32:05.271Z,35.70
2023-03-30T01:34:51.771Z,34.97
2023-03-30T01:37:39.720Z,35.00
2023-03-30T01:40:19.097Z,33.33
2023-03-30T01:43:01.435Z,33.60
2023-03-30T01:45:43.152Z,33.43
2023-03-30T01:48:26.239Z,33.93
2023-03-30T01:50:54.256Z,32.47
2023-03-30T01:53:29.579Z,32.77
2023-03-30T01:56:12.483Z,32.90
2023-03-30T01:58:44.107Z,32.80
2023-03-30T02:01:14.414Z,33.53
2023-03-30T02:03:42.421Z,31.40
2023-03-30T02:06:13.945Z,31.17
2023-03-30T02:08:41.136Z,30.40
2023-03-30T02:11:07.844Z,31.10
2023-03-30T02:13:35.853Z,32.17
2023-03-30T02:16:11.825Z,32.60
2023-03-30T02:18:38.811Z,30.67
2023-03-30T02:21:05.801Z,31.50
2023-03-30T02:23:35.743Z,31.17
2023-03-30T02:26:02.718Z,31.07
2023-03-30T02:28:29.227Z,30.03
2023-03-30T02:30:55.825Z,31.37
2023-03-30T02:33:43.740Z,30.03
2023-03-30T02:36:21.115Z,32.63
2023-03-30T02:39:00.186Z,31.13
2023-03-30T02:41:45.628Z,31.13
2023-03-30T02:44:16.170Z,31.50
2023-03-30T02:46:49.620Z,31.33
2023-03-30T02:49:21.599Z,31.20
2023-03-30T02:52:33.787Z,30.60
2023-03-30T02:55:42.136Z,30.67
2023-03-30T02:58:11.916Z,30.30
2023-03-30T03:00:44.531Z,30.33
2023-03-30T03:03:17.189Z,30.00
2023-03-30T03:05:44.867Z,31.97
2023-03-30T03:08:15.666Z,31.53
2023-03-30T03:10:42.126Z,31.60
2023-03-30T03:13:10.085Z,31.67
2023-03-30T03:15:37.999Z,29.13
2023-03-30T03:18:04.556Z,29.77
2023-03-30T03:20:31.069Z,30.53
2023-03-30T03:22:57.505Z,31.03
2023-03-30T03:25:24.055Z,31.23
2023-03-30T03:27:50.619Z,29.50
2023-03-30T03:30:17.126Z,29.93
2023-03-30T03:32:43.609Z,29.93
2023-03-30T03:35:10.476Z,29.33
2023-03-30T03:37:36.925Z,29.87
2023-03-30T03:40:05.816Z,28.73
2023-03-30T03:42:32.270Z,29.37
2023-03-30T03:44:58.737Z,29.43
2023-03-30T03:47:25.357Z,29.33
2023-03-30T03:49:51.921Z,29.23
2023-03-30T03:52:18.353Z,28.33
2023-03-30T03:54:44.812Z,29.03
2023-03-30T03:57:11.314Z,28.50
2023-03-30T03:59:37.846Z,28.97
2023-03-30T04:02:05.531Z,27.87
2023-03-30T04:04:32.227Z,28.67
2023-03-30T04:06:58.733Z,28.47
2023-03-30T04:09:26.020Z,29.20
2023-03-30T04:11:52.472Z,29.50
2023-03-30T04:14:18.992Z,29.77
2023-03-30T04:16:45.545Z,30.20
2023-03-30T04:19:12.776Z,29.30
2023-03-30T04:21:41.142Z,26.63
2023-03-30T04:24:12.202Z,27.67
2023-03-30T04:26:38.939Z,26.67
2023-03-30T04:29:06.811Z,28.67
2023-03-30T04:31:35.570Z,27.37
2023-03-30T04:34:02.726Z,26.30
2023-03-30T04:36:29.579Z,25.77
2023-03-30T04:38:59.734Z,25.83
2023-03-30T04:41:33.577Z,25.80
2023-03-30T04:44:04.566Z,24.20
2023-03-30T04:46:31.398Z,24.67
2023-03-30T04:48:57.974Z,24.23
2023-03-30T04:51:24.618Z,24.07
2023-03-30T04:53:51.347Z,23.97
2023-03-30T04:56:17.896Z,24.57
2023-03-30T04:58:44.466Z,24.23
2023-03-30T05:01:11.000Z,23.87
2023-03-30T05:03:37.835Z,24.87
2023-03-30T05:06:04.708Z,24.27
2023-03-30T05:08:33.387Z,22.20
2023-03-30T05:11:05.211Z,22.83
2023-03-30T05:13:31.929Z,23.13
2023-03-30T05:15:59.450Z,23.13
2023-03-30T05:18:29.954Z,24.20
2023-03-30T05:20:58.444Z,23.40
2023-03-30T05:23:31.699Z,21.63
2023-03-30T05:25:58.246Z,21.20
2023-03-30T05:28:24.752Z,21.10
2023-03-30T05:30:54.895Z,21.23
2023-03-30T05:33:22.239Z,20.33
2023-03-30T05:35:48.799Z,20.70
2023-03-30T05:38:15.348Z,21.13
2023-03-30T05:40:42.336Z,21.20
2023-03-30T05:43:09.448Z,20.20
2023-03-30T05:45:35.990Z,20.40
2023-03-30T05:48:02.657Z,19.70
2023-03-30T05:50:29.207Z,20.47
2023-03-30T05:52:55.686Z,18.77
2023-03-30T05:55:23.748Z,19.57
2023-03-30T05:57:50.279Z,19.93
2023-03-30T06:00:17.116Z,20.13
2023-03-30T06:02:43.694Z,18.80
2023-03-30T06:05:10.211Z,19.53
2023-03-30T06:07:37.547Z,19.40
2023-03-30T06:10:06.151Z,19.03
2023-03-30T06:12:33.726Z,18.60
2023-03-30T06:15:02.991Z,19.20
2023-03-30T06:17:29.924Z,18.77
2023-03-30T06:19:56.546Z,17.17
2023-03-30T06:22:23.367Z,17.03
2023-03-30T06:24:49.871Z,15.57
2023-03-30T06:27:16.928Z,16.10
2023-03-30T06:29:43.635Z,20.97
2023-03-30T06:32:10.164Z,31.60
2023-03-30T06:34:36.623Z,28.80
2023-03-30T06:37:03.377Z,19.73
2023-03-30T06:39:30.020Z,16.27
2023-03-30T06:41:56.716Z,14.97
2023-03-30T06:44:23.742Z,17.37
2023-03-30T06:46:50.331Z,16.97
2023-03-30T06:49:16.822Z,18.83
2023-03-30T06:51:43.386Z,20.13
2023-03-30T06:54:09.887Z,20.87
2023-03-30T06:56:36.352Z,20.77
2023-03-30T06:59:03.066Z,18.17
2023-03-30T07:01:29.583Z,21.70
2023-03-30T07:03:56.604Z,19.23
2023-03-30T07:06:24.326Z,18.47
2023-03-30T07:08:50.847Z,19.07
2023-03-30T07:11:17.305Z,19.70
2023-03-30T07:13:43.817Z,21.37
2023-03-30T07:16:10.387Z,20.03
2023-03-30T07:18:36.872Z,20.87
2023-03-30T07:21:04.644Z,19.23
2023-03-30T07:23:31.658Z,18.73
2023-03-30T07:25:58.138Z,18.37
2023-03-30T07:28:24.657Z,17.43
2023-03-30T07:30:51.651Z,19.53
2023-03-30T07:33:18.745Z,17.33
2023-03-30T07:35:46.268Z,17.03
2023-03-30T07:38:15.464Z,17.47
2023-03-30T07:40:42.442Z,17.80
2023-03-30T07:43:10.374Z,17.63
2023-03-30T07:45:36.823Z,16.03
2023-03-30T07:48:03.611Z,14.63
2023-03-30T07:50:30.866Z,14.27
2023-03-30T07:52:57.346Z,13.63
2023-03-30T07:55:24.069Z,13.83
2023-03-30T07:57:50.602Z,14.13
2023-03-30T08:00:17.303Z,14.13
2023-03-30T08:02:44.848Z,13.97
2023-03-30T08:05:11.499Z,12.37
2023-03-30T08:07:38.240Z,12.23
2023-03-30T08:10:05.272Z,12.27
2023-03-30T08:12:31.765Z,11.40
2023-03-30T08:14:58.534Z,10.90
2023-03-30T08:17:25.068Z,11.20
2023-03-30T08:19:51.645Z,10.10
2023-03-30T08:22:18.428Z,10.23
2023-03-30T08:24:44.913Z,10.37
2023-03-30T08:27:11.395Z,10.37
2023-03-30T08:29:37.889Z,8.97
2023-03-30T08:32:04.473Z,9.97
2023-03-30T08:34:31.051Z,9.30
2023-03-30T08:36:58.161Z,8.83
2023-03-30T08:39:24.889Z,8.50
2023-03-30T08:42:09.895Z,8.30
2023-03-30T08:44:41.896Z,8.30
2023-03-30T08:47:13.917Z,7.67
2023-03-30T08:49:43.480Z,7.67
2023-03-30T08:52:16.717Z,7.67
2023-03-30T08:54:43.298Z,7.50
2023-03-30T08:57:26.563Z,7.83
2023-03-30T09:00:01.147Z,6.77
2023-03-30T09:02:32.966Z,6.97
2023-03-30T09:05:19.155Z,7.40
2023-03-30T09:08:16.433Z,6.63
2023-03-30T09:10:48.038Z,6.63
2023-03-30T09:13:17.370Z,6.40
2023-03-30T09:15:49.773Z,7.00
2023-03-30T09:18:19.491Z,6.27
2023-03-30T09:20:47.104Z,6.27
2023-03-30T09:23:16.401Z,5.83
2023-03-30T09:25:55.676Z,6.00
2023-03-30T09:28:35.048Z,5.57
2023-03-30T09:31:10.943Z,5.20
2023-03-30T09:33:59.065Z,5.33
2023-03-30T09:36:36.205Z,5.30
2023-03-30T09:39:09.602Z,5.07
2023-03-30T09:41:57.750Z,5.13
2023-03-30T09:44:33.911Z,4.97
2023-03-30T09:47:01.151Z,5.13
2023-03-30T09:49:29.350Z,5.10
2023-03-30T09:52:07.743Z,4.90
2023-03-30T09:54:39.225Z,4.63
2023-03-30T09:57:06.014Z,5.00
2023-03-30T09:59:38.615Z,5.00
2023-03-30T10:02:16.468Z,4.77
2023-03-30T10:05:02.934Z,4.47
2023-03-30T10:07:37.780Z,4.93
2023-03-30T10:10:26.957Z,4.30
2023-03-30T10:13:04.574Z,4.40
2023-03-30T10:15:31.700Z,4.53
2023-03-30T10:18:02.368Z,4.60
2023-03-30T10:20:34.232Z,4.83
2023-03-30T10:23:04.816Z,4.47
2023-03-30T10:25:33.502Z,4.43
2023-03-30T10:28:02.807Z,4.40
2023-03-30T10:30:29.660Z,4.17
2023-03-30T10:32:58.563Z,4.50
2023-03-30T10:35:27.365Z,4.23
2023-03-30T10:37:55.804Z,4.17
2023-03-30T10:40:24.377Z,4.10
2023-03-30T10:42:55.499Z,3.90
2023-03-30T10:45:34.914Z,3.87
2023-03-30T10:48:26.530Z,4.03
2023-03-30T10:51:01.817Z,3.50
2023-03-30T10:53:36.749Z,3.77
2023-03-30T10:56:20.277Z,3.93
2023-03-30T10:59:08.139Z,3.90
2023-03-30T11:01:49.832Z,3.37
2023-03-30T11:04:24.498Z,6.23
2023-03-30T11:06:53.635Z,3.37
2023-03-30T11:09:24.496Z,2.80
2023-03-30T11:12:14.045Z,3.73
2023-03-30T11:14:50.673Z,3.00
2023-03-30T11:17:23.724Z,2.80
2023-03-30T11:19:55.862Z,2.60
2023-03-30T11:22:33.658Z,2.80
2023-03-30T11:25:01.110Z,2.40
2023-03-30T11:27:35.599Z,2.63
2023-03-30T11:30:22.249Z,2.73
2023-03-30T11:33:17.845Z,2.63
2023-03-30T11:35:47.743Z,3.07
2023-03-30T11:38:32.498Z,2.90
2023-03-30T11:41:11.718Z,2.93
2023-03-30T11:43:38.279Z,3.43
2023-03-30T11:46:27.779Z,3.00
2023-03-30T11:49:13.497Z,3.13
2023-03-30T11:51:55.991Z,3.23
2023-03-30T11:54:39.042Z,2.87
2023-03-30T11:57:18.430Z,2.87
2023-03-30T12:00:09.840Z,3.20
2023-03-30T12:02:54.710Z,3.23
2023-03-30T12:05:43.436Z,3.03
2023-03-30T12:08:29.216Z,3.30
2023-03-30T12:11:01.584Z,3.20
2023-03-30T12:13:38.103Z,3.70
2023-03-30T12:16:19.864Z,3.17
2023-03-30T12:18:51.379Z,3.10
2023-03-30T12:21:39.590Z,3.40
2023-03-30T12:24:42.986Z,4.03
2023-03-30T12:27:11.729Z,4.23
2023-03-30T12:32:28.669Z,3.43
2023-03-30T12:34:57.421Z,3.50
2023-03-30T12:37:28.707Z,3.87
2023-03-30T12:40:08.856Z,3.60
2023-03-30T12:42:55.839Z,4.30
2023-03-30T12:45:32.081Z,4.50
2023-03-30T12:48:08.990Z,3.43
2023-03-30T12:50:41.909Z,3.20
2023-03-30T12:53:23.720Z,3.60
2023-03-30T12:55:57.553Z,3.17
2023-03-30T12:58:29.926Z,3.47
2023-03-30T13:01:21.350Z,3.13
2023-03-30T13:03:54.357Z,2.80
2023-03-30T13:06:37.539Z,3.03
2023-03-30T13:09:10.264Z,3.10
2023-03-30T13:12:02.968Z,3.10
2023-03-30T13:14:34.160Z,3.10
2023-03-30T13:17:03.631Z,2.53
2023-03-30T13:19:33.376Z,3.07
2023-03-30T13:22:12.359Z,2.60
2023-03-30T13:24:44.558Z,3.13
2023-03-30T13:27:21.032Z,3.30
2023-03-30T13:30:00.403Z,3.03
2023-03-30T13:32:26.885Z,3.63
2023-03-30T13:35:07.744Z,3.73
2023-03-30T13:37:37.466Z,3.23
2023-03-30T13:40:24.574Z,3.50
2023-03-30T13:43:08.023Z,3.27
2023-03-30T13:45:46.597Z,3.20
2023-03-30T13:48:32.007Z,3.97
2023-03-30T13:50:59.790Z,4.13
2023-03-30T13:53:35.528Z,3.70
2023-03-30T13:56:06.916Z,3.33
2023-03-30T13:58:33.917Z,3.43
2023-03-30T14:01:01.962Z,3.03
2023-03-30T14:03:36.294Z,3.03
2023-03-30T14:06:08.505Z,2.97
2023-03-30T14:08:38.320Z,3.13
2023-03-30T14:11:11.439Z,3.03
2023-03-30T14:13:38.319Z,2.90
2023-03-30T14:16:06.621Z,2.77
2023-03-30T14:18:33.599Z,2.10
2023-03-30T14:21:03.308Z,2.83
2023-03-30T14:23:37.297Z,2.83
2023-03-30T14:26:11.758Z,2.67
2023-03-30T14:28:38.583Z,2.77
2023-03-30T14:31:12.818Z,2.93
2023-03-30T14:33:40.867Z,2.93
2023-03-30T14:36:09.796Z,2.90
2023-03-30T14:38:39.414Z,3.10
2023-03-30T14:41:13.674Z,3.40
2023-03-30T14:43:40.944Z,2.97
2023-03-30T14:46:11.722Z,2.90
2023-03-30T14:48:41.568Z,2.73
2023-03-30T14:51:20.449Z,2.97
2023-03-30T14:53:46.943Z,3.37
2023-03-30T14:56:13.643Z,3.00
2023-03-30T14:58:40.601Z,3.27
2023-03-30T15:01:09.861Z,3.93
2023-03-30T15:03:37.432Z,3.07
2023-03-30T15:06:06.988Z,3.57
2023-03-30T15:08:37.369Z,3.67
2023-03-30T15:11:09.822Z,3.97
2023-03-30T15:13:39.822Z,4.17
2023-03-30T15:16:07.227Z,3.77
2023-03-30T15:18:35.256Z,3.83
2023-03-30T15:21:02.252Z,3.77
2023-03-30T15:23:36.634Z,4.20
2023-03-30T15:26:06.651Z,5.37
2023-03-30T15:28:38.563Z,4.20
2023-03-30T15:31:05.563Z,3.80
2023-03-30T15:33:36.812Z,4.53
2023-03-30T15:36:13.425Z,3.93
2023-03-30T15:38:46.902Z,4.27
2023-03-30T15:41:15.659Z,5.47
2023-03-30T15:44:10.416Z,5.60
2023-03-30T15:46:37.648Z,5.30
2023-03-30T15:49:05.155Z,4.67
2023-03-30T15:51:39.006Z,5.17
2023-03-30T15:54:13.802Z,5.10
2023-03-30T15:56:41.129Z,5.23
2023-03-30T15:59:20.069Z,4.87
2023-03-30T16:01:53.887Z,4.50
2023-03-30T16:04:26.281Z,4.47
2023-03-30T16:06:53.562Z,4.30
2023-03-30T16:09:20.219Z,5.27
2023-03-30T16:11:47.048Z,4.20
2023-03-30T16:14:17.407Z,4.33
2023-03-30T16:16:44.491Z,4.50
2023-03-30T16:19:12.880Z,4.90
2023-03-30T16:21:44.038Z,3.90
2023-03-30T16:24:11.948Z,4.30
2023-03-30T16:26:41.688Z,4.67
2023-03-30T16:29:24.322Z,4.70
2023-03-30T16:31:51.638Z,4.80
2023-03-30T16:34:24.632Z,4.80
2023-03-30T16:36:52.332Z,4.70
2023-03-30T16:39:21.444Z,4.40
2023-03-30T16:41:49.480Z,5.10
2023-03-30T16:44:21.205Z,4.17
2023-03-30T16:46:48.341Z,4.47
2023-03-30T16:49:21.659Z,4.80
2023-03-30T16:51:48.484Z,5.20
2023-03-30T16:54:29.399Z,5.17
2023-03-30T16:56:57.626Z,5.33
2023-03-30T16:59:26.518Z,4.43
2023-03-30T17:01:53.287Z,5.60
2023-03-30T17:04:21.064Z,5.30
2023-03-30T17:06:47.705Z,6.13
2023-03-30T17:09:17.146Z,5.30
2023-03-30T17:11:44.731Z,5.67
2023-03-30T17:14:11.280Z,4.70
2023-03-30T17:16:38.175Z,5.70
2023-03-30T17:19:05.160Z,6.53
2023-03-30T17:21:31.803Z,5.93
2023-03-30T17:23:58.525Z,5.57
2023-03-30T17:26:25.372Z,5.87
2023-03-30T17:28:52.327Z,5.67
2023-03-30T17:31:20.342Z,6.57
2023-03-30T17:33:47.674Z,5.63
2023-03-30T17:36:21.739Z,6.33
2023-03-30T17:38:49.325Z,6.30
2023-03-30T17:41:19.226Z,5.40
2023-03-30T17:43:48.020Z,6.07
2023-03-30T17:46:16.971Z,6.03
2023-03-30T17:48:44.549Z,5.67
2023-03-30T17:51:11.090Z,6.23
2023-03-30T17:53:37.862Z,6.67
2023-03-30T17:56:05.145Z,6.07
2023-03-30T17:58:34.164Z,6.53
2023-03-30T18:01:02.696Z,5.67
2023-03-30T18:03:31.304Z,6.77
2023-03-30T18:06:00.019Z,5.47
2023-03-30T18:08:27.350Z,5.60
2023-03-30T18:10:57.857Z,5.77
2023-03-30T18:13:25.789Z,6.90
2023-03-30T18:15:54.788Z,5.83
2023-03-30T18:18:31.085Z,6.00
2023-03-30T18:21:03.427Z,5.80
2023-03-30T18:25:57.900Z,7.20
2023-03-30T18:28:26.119Z,6.27
2023-03-30T18:30:55.317Z,7.73
2023-03-30T18:33:27.222Z,7.03
2023-03-30T18:35:54.506Z,5.80
2023-03-30T18:38:25.152Z,6.87
2023-03-30T18:40:57.897Z,6.60
2023-03-30T18:43:26.567Z,7.73
2023-03-30T18:45:54.510Z,5.80
2023-03-30T18:48:23.727Z,6.40
2023-03-30T18:50:53.940Z,5.97
2023-03-30T18:53:36.714Z,6.83
2023-03-30T18:56:03.819Z,6.93
2023-03-30T18:58:54.218Z,6.13
2023-03-30T19:01:25.975Z,6.47
2023-03-30T19:03:53.556Z,6.50
2023-03-30T19:06:24.863Z,6.00
2023-03-30T19:08:51.461Z,5.73
2023-03-30T19:11:23.322Z,6.23
2023-03-30T19:13:50.047Z,5.43
2023-03-30T19:16:20.205Z,6.83
2023-03-30T19:18:46.761Z,6.53
2023-03-30T19:21:17.914Z,5.77
2023-03-30T19:23:44.572Z,5.93
2023-03-30T19:26:12.689Z,6.10
2023-03-30T19:28:40.533Z,6.13
2023-03-30T19:31:13.432Z,5.73
2023-03-30T19:33:52.283Z,6.50
2023-03-30T19:36:23.971Z,5.90
2023-03-30T19:38:51.601Z,6.03
2023-03-30T19:41:18.159Z,5.97
2023-03-30T19:43:45.572Z,5.70
2023-03-30T19:46:14.205Z,6.73
2023-03-30T19:48:40.809Z,7.60
2023-03-30T19:51:07.540Z,6.73
2023-03-30T19:53:35.431Z,6.73
2023-03-30T19:56:01.909Z,6.63
2023-03-30T19:58:28.383Z,6.37
2023-03-30T20:00:55.541Z,6.37
2023-03-30T20:03:22.142Z,6.77
2023-03-30T20:05:50.385Z,6.73
2023-03-30T20:08:23.865Z,7.23
2023-03-30T20:10:59.499Z,5.67
2023-03-30T20:13:27.308Z,6.33
2023-03-30T20:15:55.121Z,7.13
2023-03-30T20:18:21.649Z,6.40
2023-03-30T20:20:48.176Z,7.23
2023-03-30T20:23:14.631Z,6.90
2023-03-30T20:25:49.270Z,6.13
2023-03-30T20:28:16.770Z,6.87
2023-03-30T20:30:43.313Z,5.80
2023-03-30T20:33:11.020Z,6.93
2023-03-30T20:35:38.271Z,7.80
2023-03-30T20:38:06.225Z,6.70
2023-03-30T20:40:32.926Z,7.37
2023-03-30T20:43:03.360Z,7.37
2023-03-30T20:45:31.877Z,7.27
2023-03-30T20:47:59.792Z,7.13
2023-03-30T20:50:27.201Z,7.60
2023-03-30T20:52:53.862Z,7.17
2023-03-30T20:55:20.343Z,7.53
2023-03-30T20:57:48.357Z,8.30
2023-03-30T21:00:15.626Z,8.17
2023-03-30T21:02:43.001Z,7.80
2023-03-30T21:05:09.718Z,6.77
2023-03-30T21:07:38.398Z,6.07
2023-03-30T21:10:05.815Z,6.90
2023-03-30T21:12:32.353Z,6.77
2023-03-30T21:14:58.805Z,7.87
2023-03-30T21:17:25.931Z,7.10
2023-03-30T21:19:52.885Z,7.30
2023-03-30T21:22:19.469Z,7.40
2023-03-30T21:24:46.264Z,7.17
2023-03-30T21:27:14.482Z,7.27
2023-03-30T21:29:41.709Z,7.43
2023-03-30T21:32:08.620Z,7.87
2023-03-30T21:34:35.082Z,7.87
2023-03-30T21:37:01.640Z,7.13
2023-03-30T21:39:28.180Z,8.03
2023-03-30T21:41:55.371Z,7.67
2023-03-30T21:44:22.451Z,7.77
2023-03-30T21:46:49.096Z,7.90
2023-03-30T21:49:16.153Z,7.53
2023-03-30T21:51:42.653Z,8.57
2023-03-30T21:54:09.702Z,7.90
2023-03-30T21:56:36.445Z,8.10
2023-03-30T21:59:03.195Z,7.77
2023-03-30T22:01:31.075Z,7.83
2023-03-30T22:03:57.991Z,8.30
2023-03-30T22:06:24.565Z,8.30
2023-03-30T22:08:51.318Z,7.93
2023-03-30T22:11:22.936Z,8.07
2023-03-30T22:13:50.169Z,8.10
2023-03-30T22:16:33.398Z,8.47
2023-03-30T22:19:00.027Z,8.50
2023-03-30T22:21:34.256Z,7.57
2023-03-30T22:24:02.416Z,8.03
2023-03-30T22:26:28.902Z,8.03
2023-03-30T22:28:56.236Z,8.77
2023-03-30T22:31:22.775Z,8.50
2023-03-30T22:33:49.345Z,8.23
2023-03-30T22:36:19.308Z,8.07
2023-03-30T22:38:47.231Z,7.83
2023-03-30T22:41:14.033Z,7.50
2023-03-30T22:43:41.121Z,6.83
2023-03-30T22:46:08.233Z,7.87
2023-03-30T22:48:35.672Z,7.97
2023-03-30T22:51:03.966Z,8.17
2023-03-30T22:53:31.497Z,8.13
2023-03-30T22:55:58.058Z,8.20
2023-03-30T22:58:24.546Z,7.30
2023-03-30T23:00:51.350Z,7.80
2023-03-30T23:03:18.260Z,8.43
2023-03-30T23:05:51.637Z,8.60
2023-03-30T23:08:18.485Z,7.50
2023-03-30T23:10:45.175Z,8.37
2023-03-30T23:13:11.684Z,7.03
2023-03-30T23:15:38.132Z,6.47
2023-03-30T23:18:05.999Z,5.80
2023-03-30T23:20:32.552Z,5.67
2023-03-30T23:22:59.019Z,6.00
2023-03-30T23:25:26.656Z,6.43
2023-03-30T23:27:53.191Z,6.37
2023-03-30T23:30:19.777Z,6.20
2023-03-30T23:32:46.277Z,6.37
2023-03-30T23:35:13.416Z,6.93
2023-03-30T23:37:40.243Z,7.07
2023-03-30T23:40:08.019Z,8.03
2023-03-30T23:42:34.573Z,7.93
2023-03-30T23:45:01.254Z,7.70
2023-03-30T23:47:27.872Z,7.30
2023-03-30T23:49:54.430Z,7.53
2023-03-30T23:52:21.166Z,7.07
2023-03-30T23:54:53.935Z,6.77
2023-03-30T23:57:20.666Z,7.90
2023-03-30T23:59:47.164Z,7.63
